createdAt,value
2022-11-16T00:00:26.407Z,88.86
2022-11-16T00:02:54.805Z,89.14
2022-11-16T00:05:27.943Z,88.40
2022-11-16T00:07:57.021Z,88.73
2022-11-16T00:10:25.567Z,89.39
2022-11-16T00:12:53.916Z,90.21
2022-11-16T00:15:22.516Z,91.23
2022-11-16T00:17:50.896Z,91.00
2022-11-16T00:20:19.373Z,89.41
2022-11-16T00:22:47.374Z,88.97
2022-11-16T00:25:15.838Z,88.93
2022-11-16T00:27:44.684Z,89.14
2022-11-16T00:30:13.564Z,88.32
2022-11-16T00:32:41.928Z,88.59
2022-11-16T00:35:10.680Z,89.22
2022-11-16T00:37:38.780Z,89.92
2022-11-16T00:40:07.875Z,90.22
2022-11-16T00:42:35.917Z,90.53
2022-11-16T00:45:04.481Z,90.50
2022-11-16T00:47:33.072Z,89.76
2022-11-16T00:50:01.448Z,90.05
2022-11-16T00:52:29.989Z,89.54
2022-11-16T00:54:58.373Z,89.60
2022-11-16T00:57:26.844Z,89.66
2022-11-16T00:59:55.240Z,88.92
2022-11-16T01:02:23.910Z,88.71
2022-11-16T01:04:52.322Z,88.89
2022-11-16T01:07:20.803Z,89.10
2022-11-16T01:09:49.186Z,88.49
2022-11-16T01:12:16.390Z,89.14
2022-11-16T01:14:47.996Z,89.11
2022-11-16T01:17:16.728Z,88.97
2022-11-16T01:19:45.211Z,87.12
2022-11-16T01:22:13.608Z,87.72
2022-11-16T01:24:42.040Z,87.88
2022-11-16T01:27:10.497Z,87.94
2022-11-16T02:04:42.071Z,89.34
2022-11-16T02:08:01.558Z,89.39
2022-11-16T02:10:55.403Z,88.92
2022-11-16T02:14:05.259Z,89.29
2022-11-16T02:17:21.560Z,90.04
2022-11-16T02:20:31.215Z,90.00
2022-11-16T02:23:29.532Z,89.92
2022-11-16T02:26:28.587Z,89.64
2022-11-16T02:30:00.168Z,89.86
2022-11-16T02:33:04.022Z,89.52
2022-11-16T02:35:51.031Z,89.99
2022-11-16T02:38:45.777Z,90.30
2022-11-16T02:41:19.972Z,90.31
2022-11-16T02:44:16.690Z,90.22
2022-11-16T02:46:48.644Z,90.27
2022-11-16T02:49:20.345Z,90.77
2022-11-16T02:51:49.878Z,90.68
2022-11-16T02:54:19.442Z,90.33
2022-11-16T02:57:05.810Z,90.21
2022-11-16T02:59:47.567Z,90.28
2022-11-16T03:02:52.888Z,90.43
2022-11-16T03:05:33.039Z,90.34
2022-11-16T03:08:24.653Z,90.67
2022-11-16T03:11:15.682Z,90.94
2022-11-16T03:13:45.477Z,90.21
2022-11-16T03:16:29.052Z,90.64
2022-11-16T03:19:00.029Z,90.75
2022-11-16T03:21:45.364Z,91.21
2022-11-16T03:24:13.925Z,89.93
2022-11-16T03:27:35.079Z,88.39
2022-11-16T03:30:12.474Z,88.80
2022-11-16T03:33:11.817Z,88.65
2022-11-16T03:35:57.430Z,89.67
2022-11-16T03:38:28.684Z,90.05
2022-11-16T03:41:02.706Z,89.72
2022-11-16T03:43:33.038Z,89.91
2022-11-16T03:46:02.067Z,90.45
2022-11-16T03:48:37.929Z,91.30
2022-11-16T03:51:07.749Z,91.47
2022-11-16T03:53:36.193Z,91.13
2022-11-16T03:56:05.189Z,91.82
2022-11-16T03:58:33.880Z,91.36
2022-11-16T04:01:04.291Z,90.68
2022-11-16T04:03:32.886Z,90.55
2022-11-16T04:06:19.026Z,91.04
2022-11-16T04:09:04.797Z,90.96
2022-11-16T04:11:50.467Z,90.66
2022-11-16T04:14:39.469Z,90.47
2022-11-16T04:17:35.232Z,90.81
2022-11-16T04:20:21.295Z,91.31
2022-11-16T04:23:11.246Z,92.19
2022-11-16T04:25:42.291Z,92.28
2022-11-16T04:28:16.620Z,92.04
2022-11-16T04:31:08.370Z,92.01
2022-11-16T04:33:54.140Z,91.96
2022-11-16T04:36:40.329Z,91.87
2022-11-16T04:39:09.207Z,91.85
2022-11-16T04:41:55.690Z,92.24
2022-11-16T04:44:29.788Z,91.99
2022-11-16T04:47:09.467Z,92.35
2022-11-16T04:49:39.022Z,92.88
2022-11-16T04:52:07.431Z,92.60
2022-11-16T04:54:35.880Z,92.48
2022-11-16T04:57:04.317Z,93.01
2022-11-16T04:59:32.794Z,93.10
2022-11-16T05:02:10.090Z,93.35
2022-11-16T05:04:44.968Z,93.53
2022-11-16T05:07:15.605Z,94.35
2022-11-16T05:09:46.703Z,95.10
2022-11-16T05:12:20.792Z,95.72
2022-11-16T05:14:49.389Z,95.33
2022-11-16T05:17:18.620Z,93.75
2022-11-16T05:20:04.764Z,93.64
2022-11-16T05:22:33.691Z,93.73
2022-11-16T05:25:02.203Z,94.00
2022-11-16T05:27:31.833Z,93.80
2022-11-16T05:30:00.484Z,94.28
2022-11-16T05:32:29.408Z,94.07
2022-11-16T05:34:57.770Z,94.15
2022-11-16T05:37:26.866Z,94.09
2022-11-16T05:39:56.942Z,94.00
2022-11-16T05:42:25.434Z,94.13
2022-11-16T05:44:54.019Z,94.87
2022-11-16T05:47:22.436Z,94.37
2022-11-16T05:49:51.045Z,93.74
2022-11-16T05:52:19.452Z,94.42
2022-11-16T05:54:48.091Z,94.07
2022-11-16T05:57:17.551Z,93.97
2022-11-16T05:59:46.081Z,94.88
2022-11-16T06:02:14.692Z,94.17
2022-11-16T06:04:43.182Z,94.52
2022-11-16T06:07:11.644Z,94.59
2022-11-16T06:09:40.079Z,94.42
2022-11-16T06:12:09.293Z,94.47
2022-11-16T06:14:37.692Z,93.91
2022-11-16T06:17:06.400Z,93.98
2022-11-16T06:19:36.002Z,93.95
2022-11-16T06:22:04.427Z,94.40
2022-11-16T06:24:34.772Z,94.37
2022-11-16T06:27:03.199Z,94.78
2022-11-16T06:29:31.714Z,94.82
2022-11-16T06:32:00.123Z,94.31
2022-11-16T06:34:28.538Z,93.95
2022-11-16T06:36:56.966Z,93.88
2022-11-16T06:39:25.349Z,94.26
2022-11-16T06:41:56.314Z,94.21
2022-11-16T06:44:24.706Z,94.26
2022-11-16T06:46:53.150Z,93.93
2022-11-16T06:49:21.504Z,94.21
2022-11-16T06:51:50.028Z,94.51
2022-11-16T06:54:18.415Z,94.22
2022-11-16T06:56:46.923Z,94.12
2022-11-16T06:59:15.538Z,94.19
2022-11-16T07:01:45.188Z,94.60
2022-11-16T07:04:13.743Z,94.72
2022-11-16T07:06:42.142Z,94.83
2022-11-16T07:09:11.159Z,94.97
2022-11-16T07:11:39.909Z,94.52
2022-11-16T07:14:09.589Z,94.99
2022-11-16T07:16:38.562Z,94.83
2022-11-16T07:19:07.775Z,98.28
2022-11-16T07:21:36.975Z,100.00
2022-11-16T07:24:05.756Z,100.00
2022-11-16T07:26:35.851Z,100.00
2022-11-16T07:29:04.505Z,100.00
2022-11-16T07:31:32.961Z,100.00
2022-11-16T07:34:01.375Z,100.00
2022-11-16T07:36:31.885Z,100.00
2022-11-16T07:39:00.400Z,100.00
2022-11-16T07:41:28.882Z,100.00
2022-11-16T07:43:57.591Z,100.00
2022-11-16T07:49:17.324Z,100.00
2022-11-16T07:51:46.710Z,100.00
2022-11-16T07:54:16.253Z,100.00
2022-11-16T07:56:44.685Z,99.87
2022-11-16T07:59:13.733Z,99.61
2022-11-16T08:01:42.250Z,99.71
2022-11-16T08:04:10.713Z,98.57
2022-11-16T08:06:39.271Z,97.85
2022-11-16T08:09:07.710Z,99.41
2022-11-16T08:11:36.231Z,98.13
2022-11-16T08:14:04.746Z,96.86
2022-11-16T08:16:34.111Z,97.73
2022-11-16T08:19:03.477Z,95.70
2022-11-16T08:21:31.993Z,95.34
2022-11-16T08:24:00.527Z,94.75
2022-11-16T08:26:29.107Z,93.41
2022-11-16T08:28:57.794Z,92.68
2022-11-16T08:31:33.619Z,92.35
2022-11-16T08:34:02.564Z,92.45
2022-11-16T08:36:31.066Z,93.28
2022-11-16T08:38:59.522Z,92.85
2022-11-16T08:41:28.040Z,91.84
2022-11-16T08:43:57.139Z,92.32
2022-11-16T08:46:25.642Z,91.09
2022-11-16T08:48:58.021Z,92.15
2022-11-16T08:51:29.787Z,91.11
2022-11-16T08:54:00.040Z,91.53
2022-11-16T08:56:30.155Z,90.64
2022-11-16T08:58:59.528Z,91.34
2022-11-16T09:01:31.403Z,90.80
2022-11-16T09:04:00.406Z,91.25
2022-11-16T09:06:29.484Z,91.37
2022-11-16T09:08:59.631Z,90.44
2022-11-16T09:11:28.492Z,89.96
2022-11-16T09:13:57.403Z,89.46
2022-11-16T09:16:27.876Z,89.15
2022-11-16T09:18:56.815Z,88.73
2022-11-16T09:21:30.232Z,89.20
2022-11-16T09:23:59.316Z,89.46
2022-11-16T09:26:27.789Z,89.22
2022-11-16T09:29:03.310Z,89.07
2022-11-16T09:31:37.212Z,88.74
2022-11-16T09:34:06.347Z,89.71
2022-11-16T09:36:35.183Z,90.06
2022-11-16T09:42:44.333Z,89.71
2022-11-16T09:45:40.229Z,89.31
2022-11-16T09:48:13.705Z,88.87
2022-11-16T09:51:08.200Z,88.61
2022-11-16T09:54:03.683Z,88.99
2022-11-16T09:56:36.890Z,89.04
2022-11-16T09:59:17.975Z,88.79
2022-11-16T10:02:13.949Z,88.40
2022-11-16T10:04:58.265Z,88.39
2022-11-16T10:07:35.108Z,88.48
2022-11-16T10:10:03.557Z,88.63
2022-11-16T10:12:54.769Z,88.80
2022-11-16T10:15:23.993Z,88.84
2022-11-16T10:18:38.557Z,88.83
2022-11-16T10:21:22.665Z,88.94
2022-11-16T10:24:14.360Z,89.36
2022-11-16T10:26:48.374Z,89.02
2022-11-16T10:29:41.196Z,89.05
2022-11-16T10:32:18.819Z,89.78
2022-11-16T10:34:53.581Z,90.50
2022-11-16T10:37:23.605Z,90.92
2022-11-16T10:39:54.297Z,91.64
2022-11-16T10:42:54.908Z,91.27
2022-11-16T10:45:45.989Z,92.25
2022-11-16T10:48:42.862Z,93.29
2022-11-16T10:51:11.948Z,93.58
2022-11-16T10:53:44.319Z,93.36
2022-11-16T10:56:30.155Z,93.01
2022-11-16T10:59:03.299Z,93.11
2022-11-16T11:01:53.297Z,94.69
2022-11-16T11:04:25.574Z,94.29
2022-11-16T11:06:59.923Z,93.84
2022-11-16T11:09:33.864Z,94.73
2022-11-16T11:12:32.158Z,94.44
2022-11-16T11:15:04.704Z,94.55
2022-11-16T11:17:35.486Z,94.78
2022-11-16T11:20:12.700Z,94.99
2022-11-16T11:22:58.093Z,96.19
2022-11-16T11:25:41.242Z,94.97
2022-11-16T11:28:32.911Z,96.70
2022-11-16T11:31:13.759Z,96.95
2022-11-16T11:34:28.859Z,95.76
2022-11-16T11:37:02.500Z,95.14
2022-11-16T11:39:37.694Z,95.29
2022-11-16T11:42:15.062Z,95.52
2022-11-16T11:45:07.679Z,95.68
2022-11-16T11:48:04.004Z,95.27
2022-11-16T11:50:37.824Z,96.62
2022-11-16T11:53:13.167Z,97.17
2022-11-16T11:55:41.703Z,97.45
2022-11-16T11:58:17.845Z,97.66
2022-11-16T12:01:36.670Z,99.29
2022-11-16T12:05:00.283Z,100.00
2022-11-16T12:07:55.384Z,99.64
2022-11-16T12:10:55.998Z,99.29
2022-11-16T12:14:05.345Z,99.86
2022-11-16T12:17:24.691Z,100.00
2022-11-16T12:20:20.623Z,99.96
2022-11-16T12:23:30.871Z,100.00
2022-11-16T12:26:22.824Z,100.00
2022-11-16T12:29:21.937Z,100.00
2022-11-16T12:32:19.025Z,100.00
2022-11-16T12:35:21.822Z,100.00
2022-11-16T12:38:26.431Z,100.00
2022-11-16T12:41:44.910Z,100.00
2022-11-16T12:44:20.972Z,100.00
2022-11-16T12:47:51.846Z,100.00
2022-11-16T12:50:46.602Z,100.00
2022-11-16T12:53:31.513Z,100.00
2022-11-16T12:56:48.839Z,100.00
2022-11-16T13:00:03.005Z,100.00
2022-11-16T13:02:59.063Z,100.00
2022-11-16T13:05:51.273Z,100.00
2022-11-16T13:08:41.423Z,100.00
2022-11-16T13:11:19.304Z,100.00
2022-11-16T13:13:53.379Z,100.00
2022-11-16T13:16:24.279Z,100.00
2022-11-16T13:18:53.678Z,100.00
2022-11-16T13:22:03.767Z,100.00
2022-11-16T13:24:55.486Z,100.00
2022-11-16T13:27:45.058Z,100.00
2022-11-16T13:30:26.346Z,100.00
2022-11-16T13:33:33.278Z,100.00
2022-11-16T13:36:47.760Z,100.00
2022-11-16T13:39:22.940Z,100.00
2022-11-16T13:42:13.022Z,100.00
2022-11-16T13:44:41.363Z,100.00
2022-11-16T13:47:30.424Z,100.00
2022-11-16T13:50:05.554Z,100.00
2022-11-16T13:55:47.478Z,100.00
2022-11-16T13:58:22.841Z,100.00
2022-11-16T14:01:02.231Z,100.00
2022-11-16T14:03:40.111Z,100.00
2022-11-16T14:06:30.965Z,100.00
2022-11-16T14:09:01.755Z,100.00
2022-11-16T14:11:34.741Z,100.00
2022-11-16T14:14:11.322Z,100.00
2022-11-16T14:16:47.188Z,100.00
2022-11-16T14:19:47.620Z,100.00
2022-11-16T14:22:46.710Z,100.00
2022-11-16T14:25:31.905Z,100.00
2022-11-16T14:28:24.851Z,100.00
2022-11-16T14:31:30.760Z,100.00
2022-11-16T14:34:01.619Z,100.00
2022-11-16T14:36:43.475Z,100.00
2022-11-16T14:39:37.232Z,100.00
2022-11-16T14:42:16.340Z,100.00
2022-11-16T14:44:45.131Z,100.00
2022-11-16T14:47:30.478Z,100.00
2022-11-16T14:49:58.664Z,100.00
2022-11-16T14:52:38.139Z,100.00
2022-11-16T14:55:09.803Z,100.00
2022-11-16T14:57:38.283Z,100.00
2022-11-16T15:00:19.014Z,100.00
2022-11-16T15:02:51.816Z,100.00
2022-11-16T15:05:31.189Z,100.00
2022-11-16T15:08:01.324Z,100.00
2022-11-16T15:10:30.619Z,100.00
2022-11-16T15:12:59.375Z,100.00
2022-11-16T15:15:31.673Z,100.00
2022-11-16T15:18:12.990Z,100.00
2022-11-16T15:20:51.782Z,100.00
2022-11-16T15:23:23.871Z,100.00
2022-11-16T15:26:00.321Z,100.00
2022-11-16T15:28:31.682Z,100.00
2022-11-16T15:31:04.365Z,100.00
2022-11-16T15:33:40.678Z,100.00
2022-11-16T15:36:41.700Z,100.00
2022-11-16T15:39:22.120Z,100.00
2022-11-16T15:41:51.526Z,100.00
2022-11-16T15:44:23.674Z,100.00
2022-11-16T15:46:57.285Z,100.00
2022-11-16T15:49:36.583Z,100.00
2022-11-16T15:52:05.140Z,100.00
2022-11-16T15:54:56.577Z,100.00
2022-11-16T15:57:26.057Z,100.00
2022-11-16T15:59:57.467Z,100.00
2022-11-16T16:02:29.391Z,100.00
2022-11-16T16:04:57.560Z,100.00
2022-11-16T16:07:43.938Z,100.00
2022-11-16T16:10:21.046Z,100.00
2022-11-16T16:13:01.286Z,100.00
2022-11-16T16:15:34.047Z,100.00
2022-11-16T16:18:04.300Z,100.00
2022-11-16T16:20:34.885Z,100.00
2022-11-16T16:23:13.856Z,100.00
2022-11-16T16:25:47.477Z,100.00
2022-11-16T16:28:18.316Z,100.00
2022-11-16T16:30:46.355Z,100.00
2022-11-16T16:33:21.977Z,100.00
2022-11-16T16:35:50.998Z,100.00
2022-11-16T16:38:19.435Z,100.00
2022-11-16T16:40:48.094Z,100.00
2022-11-16T16:43:16.656Z,100.00
2022-11-16T16:45:45.542Z,100.00
2022-11-16T16:48:14.173Z,100.00
2022-11-16T16:50:42.368Z,100.00
2022-11-16T16:53:14.354Z,100.00
2022-11-16T16:55:47.589Z,100.00
2022-11-16T16:58:16.906Z,100.00
2022-11-16T17:00:45.843Z,100.00
2022-11-16T17:03:14.735Z,100.00
2022-11-16T17:05:42.920Z,100.00
2022-11-16T17:08:11.097Z,100.00
2022-11-16T17:10:39.860Z,100.00
2022-11-16T17:13:07.999Z,100.00
2022-11-16T17:15:36.567Z,100.00
2022-11-16T17:18:05.178Z,100.00
2022-11-16T17:20:34.229Z,100.00
2022-11-16T17:23:03.036Z,100.00
2022-11-16T17:25:32.995Z,100.00
2022-11-16T17:28:01.491Z,100.00
2022-11-16T17:30:29.602Z,100.00
2022-11-16T17:32:58.052Z,100.00
2022-11-16T17:35:26.247Z,100.00
2022-11-16T17:37:54.685Z,100.00
2022-11-16T17:40:23.231Z,100.00
2022-11-16T17:42:51.997Z,100.00
2022-11-16T17:45:20.156Z,100.00
2022-11-16T17:47:48.577Z,100.00
2022-11-16T17:50:16.966Z,100.00
2022-11-16T17:52:44.976Z,100.00
2022-11-16T17:55:12.993Z,100.00
2022-11-16T17:57:41.208Z,100.00
2022-11-16T18:00:10.189Z,100.00
2022-11-16T18:02:38.291Z,100.00
2022-11-16T18:05:06.993Z,100.00
2022-11-16T18:07:36.587Z,100.00
2022-11-16T18:10:04.977Z,100.00
2022-11-16T18:12:33.516Z,100.00
2022-11-16T18:15:27.074Z,100.00
2022-11-16T18:17:49.681Z,100.00
2022-11-16T18:20:18.301Z,100.00
2022-11-16T18:22:46.727Z,100.00
2022-11-16T18:25:15.432Z,100.00
2022-11-16T18:27:43.854Z,100.00
2022-11-16T18:30:12.409Z,100.00
2022-11-16T18:32:40.430Z,100.00
2022-11-16T18:35:09.995Z,100.00
2022-11-16T18:37:38.107Z,100.00
2022-11-16T18:40:07.126Z,100.00
2022-11-16T18:42:35.937Z,100.00
2022-11-16T18:45:04.338Z,100.00
2022-11-16T18:47:32.819Z,100.00
2022-11-16T18:50:01.052Z,100.00
2022-11-16T18:52:29.552Z,100.00
2022-11-16T18:54:57.703Z,100.00
2022-11-16T18:57:26.278Z,100.00
2022-11-16T18:59:54.692Z,100.00
2022-11-16T19:02:22.746Z,100.00
2022-11-16T19:04:51.377Z,100.00
2022-11-16T19:07:19.497Z,100.00
2022-11-16T19:09:47.611Z,100.00
2022-11-16T19:12:16.204Z,100.00
2022-11-16T19:14:44.505Z,100.00
2022-11-16T19:17:12.929Z,100.00
2022-11-16T19:19:41.405Z,100.00
2022-11-16T19:22:09.534Z,100.00
2022-11-16T19:24:38.673Z,100.00
2022-11-16T19:27:07.218Z,100.00
2022-11-16T19:29:36.164Z,100.00
2022-11-16T19:32:04.725Z,100.00
2022-11-16T19:34:33.619Z,100.00
2022-11-16T19:37:02.091Z,100.00
2022-11-16T19:39:30.137Z,100.00
2022-11-16T19:41:58.633Z,100.00
2022-11-16T19:44:26.957Z,100.00
2022-11-16T19:46:56.821Z,100.00
2022-11-16T19:49:25.320Z,100.00
2022-11-16T19:51:53.787Z,100.00
2022-11-16T19:54:22.455Z,100.00
2022-11-16T19:56:54.893Z,100.00
2022-11-16T19:59:23.730Z,100.00
2022-11-16T20:01:51.963Z,100.00
2022-11-16T20:04:20.054Z,100.00
2022-11-16T20:06:48.627Z,100.00
2022-11-16T20:09:18.042Z,100.00
2022-11-16T20:11:46.525Z,100.00
2022-11-16T20:14:15.268Z,100.00
2022-11-16T20:16:46.825Z,100.00
2022-11-16T20:19:15.785Z,100.00
2022-11-16T20:21:44.681Z,100.00
2022-11-16T20:24:16.004Z,100.00
2022-11-16T20:26:48.050Z,100.00
2022-11-16T20:29:19.542Z,100.00
2022-11-16T20:31:48.093Z,100.00
2022-11-16T20:34:20.339Z,100.00
2022-11-16T20:36:50.910Z,100.00
2022-11-16T20:39:21.340Z,100.00
2022-11-16T20:41:49.855Z,100.00
2022-11-16T20:44:22.273Z,100.00
2022-11-16T20:46:52.524Z,100.00
2022-11-16T20:49:21.362Z,100.00
2022-11-16T20:51:51.129Z,100.00
2022-11-16T20:54:19.567Z,100.00
2022-11-16T20:56:49.662Z,100.00
2022-11-16T20:59:18.330Z,100.00
2022-11-16T21:01:48.621Z,100.00
2022-11-16T21:04:17.510Z,100.00
2022-11-16T21:06:46.014Z,100.00
2022-11-16T21:09:22.152Z,100.00
2022-11-16T21:12:08.109Z,100.00
2022-11-16T21:14:36.515Z,100.00
2022-11-16T21:17:05.066Z,100.00
2022-11-16T21:19:33.567Z,100.00
2022-11-16T21:22:02.101Z,100.00
2022-11-16T21:24:32.106Z,100.00
2022-11-16T21:27:00.622Z,100.00
2022-11-16T21:29:29.058Z,100.00
2022-11-16T21:31:57.500Z,100.00
2022-11-16T21:34:27.875Z,100.00
2022-11-16T21:36:56.402Z,100.00
2022-11-16T21:39:25.252Z,100.00
2022-11-16T21:41:53.695Z,100.00
2022-11-16T21:44:22.166Z,100.00
2022-11-16T21:46:50.679Z,100.00
2022-11-16T21:49:19.143Z,100.00
2022-11-16T21:51:47.623Z,100.00
2022-11-16T21:54:16.402Z,100.00
2022-11-16T21:56:44.813Z,100.00
2022-11-16T21:59:13.220Z,100.00
2022-11-16T22:01:55.582Z,100.00
2022-11-16T22:04:41.372Z,100.00
2022-11-16T22:07:36.845Z,100.00
2022-11-16T22:10:13.619Z,100.00
2022-11-16T22:12:42.172Z,100.00
2022-11-16T22:15:10.882Z,100.00
2022-11-16T22:17:44.683Z,100.00
2022-11-16T22:20:13.252Z,100.00
2022-11-16T22:22:41.788Z,100.00
2022-11-16T22:25:10.694Z,100.00
2022-11-16T22:28:05.645Z,100.00
2022-11-16T22:30:27.714Z,100.00
2022-11-16T22:32:56.395Z,100.00
2022-11-16T22:35:25.003Z,100.00
2022-11-16T22:37:53.613Z,100.00
2022-11-16T22:40:22.028Z,100.00
2022-11-16T22:42:50.475Z,100.00
2022-11-16T22:45:18.992Z,100.00
2022-11-16T22:47:49.691Z,100.00
2022-11-16T22:50:24.090Z,100.00
2022-11-16T22:52:52.625Z,100.00
2022-11-16T22:55:21.264Z,100.00
2022-11-16T22:57:49.812Z,100.00
2022-11-16T23:00:18.929Z,100.00
2022-11-16T23:02:47.576Z,100.00
2022-11-16T23:05:16.079Z,100.00
2022-11-16T23:07:44.863Z,100.00
2022-11-16T23:10:13.376Z,100.00
2022-11-16T23:12:59.215Z,100.00
2022-11-16T23:15:45.184Z,100.00
2022-11-16T23:18:13.621Z,100.00
2022-11-16T23:21:07.867Z,100.00
2022-11-16T23:23:53.711Z,100.00
2022-11-16T23:26:42.460Z,100.00
2022-11-16T23:29:11.970Z,100.00
2022-11-16T23:31:40.779Z,100.00
2022-11-16T23:34:09.198Z,100.00
2022-11-16T23:36:37.712Z,100.00
2022-11-16T23:39:06.374Z,100.00
2022-11-16T23:41:52.264Z,100.00
2022-11-16T23:44:20.662Z,100.00
2022-11-16T23:46:49.060Z,100.00
2022-11-16T23:49:17.542Z,100.00
2022-11-16T23:51:45.929Z,100.00
2022-11-16T23:54:14.400Z,100.00
2022-11-16T23:56:42.827Z,100.00
2022-11-16T23:59:11.390Z,100.00
